createdAt,value
2018-05-18T00:02:27.604Z,8.30
2018-05-18T00:04:55.166Z,8.90
2018-05-18T00:07:22.679Z,7.57
2018-05-18T00:09:50.283Z,8.23
2018-05-18T00:12:17.808Z,8.40
2018-05-18T00:14:45.342Z,9.33
2018-05-18T00:17:12.864Z,7.87
2018-05-18T00:19:40.417Z,8.10
2018-05-18T00:22:07.987Z,8.67
2018-05-18T00:24:35.512Z,8.37
2018-05-18T00:27:03.104Z,7.87
2018-05-18T00:29:30.615Z,8.43
2018-05-18T00:31:58.190Z,8.80
2018-05-18T00:34:25.719Z,7.73
2018-05-18T00:36:53.252Z,7.90
2018-05-18T00:39:20.774Z,8.70
2018-05-18T00:41:48.361Z,7.93
2018-05-18T00:44:15.877Z,8.90
2018-05-18T00:46:43.412Z,7.90
2018-05-18T00:49:11.034Z,8.43
2018-05-18T00:51:38.558Z,8.97
2018-05-18T00:54:06.159Z,8.70
2018-05-18T00:56:33.717Z,8.27
2018-05-18T00:59:01.247Z,9.07
2018-05-18T01:01:28.835Z,9.20
2018-05-18T01:03:56.452Z,8.60
2018-05-18T01:06:24.010Z,9.13
2018-05-18T01:08:51.563Z,9.13
2018-05-18T01:11:19.085Z,8.80
2018-05-18T01:13:46.638Z,8.03
2018-05-18T01:16:14.168Z,8.40
2018-05-18T01:18:41.696Z,8.53
2018-05-18T01:21:09.322Z,9.00
2018-05-18T01:23:36.840Z,9.23
2018-05-18T01:26:04.432Z,8.13
2018-05-18T01:28:31.995Z,7.77
2018-05-18T01:30:59.525Z,8.37
2018-05-18T01:33:27.060Z,8.23
2018-05-18T01:35:54.593Z,9.00
2018-05-18T01:38:22.111Z,9.03
2018-05-18T01:40:49.693Z,9.30
2018-05-18T01:43:17.215Z,8.33
2018-05-18T01:45:44.740Z,8.77
2018-05-18T01:48:12.372Z,7.97
2018-05-18T01:50:39.904Z,8.93
2018-05-18T01:53:07.513Z,8.53
2018-05-18T01:55:35.060Z,8.20
2018-05-18T01:58:02.586Z,8.87
2018-05-18T02:00:30.112Z,8.87
2018-05-18T02:02:57.634Z,8.53
2018-05-18T02:05:25.171Z,8.73
2018-05-18T02:07:52.836Z,8.27
2018-05-18T02:10:20.313Z,8.17
2018-05-18T02:12:47.846Z,8.97
2018-05-18T02:15:15.374Z,9.33
2018-05-18T02:17:42.910Z,8.93
2018-05-18T02:20:10.554Z,8.60
2018-05-18T02:22:38.081Z,8.37
2018-05-18T02:25:05.612Z,8.10
2018-05-18T02:27:33.246Z,7.97
2018-05-18T02:30:00.766Z,8.10
2018-05-18T02:32:28.352Z,8.30
2018-05-18T02:34:55.882Z,8.60
2018-05-18T02:37:23.431Z,8.77
2018-05-18T02:39:50.959Z,8.87
2018-05-18T02:42:18.490Z,9.50
2018-05-18T02:44:46.022Z,8.60
2018-05-18T02:47:13.544Z,8.67
2018-05-18T02:49:41.075Z,8.27
2018-05-18T02:52:08.596Z,7.83
2018-05-18T02:54:36.116Z,8.77
2018-05-18T02:57:03.647Z,9.17
2018-05-18T02:59:31.175Z,8.53
2018-05-18T03:01:58.752Z,8.40
2018-05-18T03:04:26.325Z,8.67
2018-05-18T03:06:53.885Z,8.63
2018-05-18T03:09:21.451Z,8.67
2018-05-18T03:11:48.979Z,9.37
2018-05-18T03:14:16.600Z,8.50
2018-05-18T03:16:44.113Z,8.67
2018-05-18T03:19:11.863Z,8.83
2018-05-18T03:21:39.380Z,8.70
2018-05-18T03:24:06.914Z,8.60
2018-05-18T03:26:34.441Z,8.17
2018-05-18T03:29:01.956Z,9.63
2018-05-18T03:31:29.472Z,7.70
2018-05-18T03:33:56.994Z,8.07
2018-05-18T03:36:24.608Z,8.90
2018-05-18T03:38:52.168Z,9.20
2018-05-18T03:41:19.684Z,8.33
2018-05-18T03:43:47.208Z,8.20
2018-05-18T03:46:14.731Z,8.67
2018-05-18T03:48:42.256Z,8.33
2018-05-18T03:51:09.837Z,8.70
2018-05-18T03:53:37.356Z,8.53
2018-05-18T03:56:04.887Z,8.27
2018-05-18T03:58:32.412Z,8.00
2018-05-18T04:00:59.936Z,8.53
2018-05-18T04:03:39.515Z,7.80
2018-05-18T04:06:18.877Z,9.27
2018-05-18T04:08:53.198Z,9.03
2018-05-18T04:11:20.723Z,9.03
2018-05-18T04:13:48.253Z,8.73
2018-05-18T04:16:15.781Z,9.10
2018-05-18T04:18:43.308Z,8.50
2018-05-18T04:21:10.900Z,9.43
2018-05-18T04:23:38.460Z,8.53
2018-05-18T04:26:05.985Z,9.23
2018-05-18T04:28:33.513Z,9.27
2018-05-18T04:31:01.137Z,9.07
2018-05-18T04:33:28.651Z,9.40
2018-05-18T04:35:56.201Z,8.87
2018-05-18T04:38:23.731Z,8.83
2018-05-18T04:40:51.259Z,9.97
2018-05-18T04:43:18.871Z,9.33
2018-05-18T04:45:46.500Z,9.00
2018-05-18T04:48:14.065Z,9.00
2018-05-18T04:50:41.584Z,9.70
2018-05-18T04:53:09.109Z,9.63
2018-05-18T04:55:36.744Z,9.80
2018-05-18T04:58:04.282Z,9.57
2018-05-18T05:00:31.812Z,9.27
2018-05-18T05:02:59.359Z,9.40
2018-05-18T05:05:26.962Z,9.73
2018-05-18T05:07:54.469Z,8.93
2018-05-18T05:10:21.996Z,9.63
2018-05-18T05:12:49.513Z,8.83
2018-05-18T05:15:17.099Z,9.37
2018-05-18T05:17:44.645Z,9.20
2018-05-18T05:20:12.161Z,9.87
2018-05-18T05:22:39.721Z,9.80
2018-05-18T05:25:07.254Z,10.27
2018-05-18T05:27:34.780Z,9.50
2018-05-18T05:30:02.313Z,10.07
2018-05-18T05:32:29.940Z,9.37
2018-05-18T05:34:57.496Z,9.60
2018-05-18T05:37:25.012Z,10.63
2018-05-18T05:39:52.620Z,9.83
2018-05-18T05:42:20.380Z,10.67
2018-05-18T05:44:47.904Z,9.70
2018-05-18T05:47:15.436Z,9.83
2018-05-18T05:49:43.059Z,9.83
2018-05-18T05:52:10.584Z,10.77
2018-05-18T05:54:38.112Z,10.27
2018-05-18T05:57:05.643Z,10.20
2018-05-18T05:59:33.165Z,10.07
2018-05-18T06:02:00.684Z,10.73
2018-05-18T06:04:28.216Z,10.67
2018-05-18T06:06:55.741Z,10.63
2018-05-18T06:09:23.344Z,11.13
2018-05-18T06:11:50.893Z,10.20
2018-05-18T06:14:18.420Z,11.77
2018-05-18T06:16:45.981Z,11.20
2018-05-18T06:19:13.577Z,11.47
2018-05-18T06:21:41.132Z,11.27
2018-05-18T06:24:08.902Z,10.37
2018-05-18T06:26:36.426Z,11.17
2018-05-18T06:29:03.990Z,11.03
2018-05-18T06:31:31.507Z,11.03
2018-05-18T06:33:59.140Z,11.00
2018-05-18T06:36:26.737Z,11.07
2018-05-18T06:38:54.284Z,11.23
2018-05-18T06:41:21.893Z,11.03
2018-05-18T06:43:49.384Z,10.90
2018-05-18T06:46:16.938Z,10.97
2018-05-18T06:48:44.463Z,11.07
2018-05-18T06:51:12.061Z,12.00
2018-05-18T06:53:39.606Z,11.40
2018-05-18T06:56:07.180Z,11.00
2018-05-18T06:58:34.718Z,11.17
2018-05-18T07:01:02.271Z,10.67
2018-05-18T07:03:29.797Z,11.43
2018-05-18T07:05:57.352Z,10.77
2018-05-18T07:08:24.876Z,10.87
2018-05-18T07:10:52.453Z,10.43
2018-05-18T07:13:19.976Z,10.20
2018-05-18T07:15:47.511Z,9.23
2018-05-18T07:18:15.048Z,10.00
2018-05-18T07:20:42.676Z,10.90
2018-05-18T07:23:10.204Z,10.67
2018-05-18T07:25:37.745Z,10.27
2018-05-18T07:28:05.286Z,10.20
2018-05-18T07:30:32.916Z,10.27
2018-05-18T07:33:00.449Z,10.47
2018-05-18T07:35:27.992Z,9.77
2018-05-18T07:37:55.565Z,9.70
2018-05-18T07:40:23.149Z,9.13
2018-05-18T07:42:50.673Z,8.90
2018-05-18T07:45:18.214Z,8.80
2018-05-18T07:47:45.853Z,8.43
2018-05-18T07:50:13.361Z,9.07
2018-05-18T07:52:40.933Z,9.13
2018-05-18T07:55:08.472Z,7.77
2018-05-18T07:57:36.080Z,7.90
2018-05-18T08:00:03.643Z,8.03
2018-05-18T08:02:31.173Z,7.60
2018-05-18T08:04:58.699Z,7.87
2018-05-18T08:07:26.333Z,8.00
2018-05-18T08:09:53.863Z,7.73
2018-05-18T08:12:21.395Z,8.40
2018-05-18T08:14:49.006Z,7.37
2018-05-18T08:17:16.527Z,7.10
2018-05-18T08:19:44.122Z,7.10
2018-05-18T08:22:11.640Z,7.10
2018-05-18T08:24:39.179Z,7.23
2018-05-18T08:27:18.610Z,7.07
2018-05-18T08:29:46.134Z,7.57
2018-05-18T08:32:13.664Z,5.80
2018-05-18T08:34:41.187Z,7.07
2018-05-18T08:37:08.818Z,6.77
2018-05-18T08:39:36.344Z,6.10
2018-05-18T08:42:03.866Z,6.37
2018-05-18T08:44:31.448Z,6.47
2018-05-18T08:46:59.040Z,6.67
2018-05-18T08:49:26.642Z,6.80
2018-05-18T08:51:54.279Z,5.87
2018-05-18T08:54:21.843Z,6.03
2018-05-18T08:56:49.402Z,6.33
2018-05-18T08:59:16.928Z,6.77
2018-05-18T09:01:44.456Z,6.57
2018-05-18T09:04:12.016Z,7.65
2018-05-18T09:06:39.576Z,7.77
2018-05-18T09:09:07.197Z,7.23
2018-05-18T09:11:34.755Z,7.30
2018-05-18T09:14:02.285Z,7.50
2018-05-18T09:16:29.819Z,7.33
2018-05-18T09:18:57.439Z,7.63
2018-05-18T09:21:25.105Z,7.33
2018-05-18T09:23:52.667Z,7.60
2018-05-18T09:26:20.225Z,7.80
2018-05-18T09:28:47.778Z,7.37
2018-05-18T09:31:15.311Z,7.57
2018-05-18T09:33:42.844Z,7.17
2018-05-18T09:36:10.366Z,7.73
2018-05-18T09:38:37.897Z,7.27
2018-05-18T09:41:05.440Z,7.40
2018-05-18T09:43:33.009Z,8.07
2018-05-18T09:46:00.552Z,6.90
2018-05-18T09:48:28.249Z,6.70
2018-05-18T09:50:55.823Z,6.60
2018-05-18T09:53:23.382Z,7.13
2018-05-18T09:55:50.919Z,6.97
2018-05-18T09:58:18.448Z,7.27
2018-05-18T10:00:46.052Z,6.83
2018-05-18T10:03:13.559Z,6.63
2018-05-18T10:05:41.199Z,6.87
2018-05-18T10:08:08.744Z,6.53
2018-05-18T10:10:36.304Z,7.00
2018-05-18T10:13:03.831Z,6.77
2018-05-18T10:15:31.384Z,7.00
2018-05-18T10:17:58.921Z,7.10
2018-05-18T10:20:26.544Z,6.77
2018-05-18T10:22:54.076Z,7.37
2018-05-18T10:25:26.442Z,6.97
2018-05-18T10:27:53.972Z,5.80
2018-05-18T10:30:31.219Z,6.57
2018-05-18T10:32:58.740Z,6.70
2018-05-18T10:35:26.314Z,6.77
2018-05-18T10:37:53.835Z,6.77
2018-05-18T10:40:21.393Z,6.63
2018-05-18T10:42:49.534Z,6.47
2018-05-18T10:45:17.143Z,6.07
2018-05-18T10:47:44.649Z,7.23
2018-05-18T10:50:12.208Z,6.80
2018-05-18T10:52:39.773Z,6.83
2018-05-18T10:55:07.300Z,6.77
2018-05-18T10:57:34.862Z,6.33
2018-05-18T11:00:02.455Z,6.40
2018-05-18T11:02:29.971Z,6.43
2018-05-18T11:04:57.601Z,6.63
2018-05-18T11:07:25.121Z,5.93
2018-05-18T11:09:52.663Z,6.63
2018-05-18T11:12:20.249Z,6.67
2018-05-18T11:14:47.769Z,6.27
2018-05-18T11:17:15.377Z,6.30
2018-05-18T11:19:42.929Z,6.63
2018-05-18T11:22:10.489Z,6.27
2018-05-18T11:24:38.061Z,6.03
2018-05-18T11:27:05.618Z,6.73
2018-05-18T11:29:33.140Z,6.90
2018-05-18T11:32:00.759Z,6.77
2018-05-18T11:34:28.386Z,6.40
2018-05-18T11:36:55.943Z,6.00
2018-05-18T11:39:23.472Z,6.23
2018-05-18T11:41:51.028Z,6.93
2018-05-18T11:44:18.648Z,6.70
2018-05-18T11:46:46.176Z,7.20
2018-05-18T11:49:13.696Z,7.27
2018-05-18T11:51:41.323Z,7.00
2018-05-18T11:54:08.869Z,7.83
2018-05-18T11:56:36.391Z,6.47
2018-05-18T11:59:04.003Z,7.30
2018-05-18T12:01:31.531Z,6.87
2018-05-18T12:03:59.048Z,7.10
2018-05-18T12:06:26.571Z,6.90
2018-05-18T12:08:54.092Z,6.63
2018-05-18T12:11:21.693Z,7.57
2018-05-18T12:13:49.221Z,7.00
2018-05-18T12:16:16.753Z,6.63
2018-05-18T12:18:44.379Z,7.53
2018-05-18T12:21:11.901Z,7.17
2018-05-18T12:23:39.425Z,6.67
2018-05-18T12:26:07.082Z,6.10
2018-05-18T12:28:35.029Z,6.87
2018-05-18T12:31:02.556Z,6.90
2018-05-18T12:33:30.081Z,7.77
2018-05-18T12:35:57.630Z,7.53
2018-05-18T12:38:25.209Z,6.97
2018-05-18T12:40:52.812Z,6.87
2018-05-18T12:43:20.328Z,7.50
2018-05-18T12:45:47.856Z,7.57
2018-05-18T12:48:15.377Z,7.53
2018-05-18T12:50:42.896Z,8.10
2018-05-18T12:53:10.428Z,7.87
2018-05-18T12:55:38.085Z,7.80
2018-05-18T12:58:05.645Z,7.10
2018-05-18T13:00:33.179Z,7.53
2018-05-18T13:03:00.776Z,7.60
2018-05-18T13:05:28.429Z,7.30
2018-05-18T13:07:55.990Z,8.50
2018-05-18T13:10:23.549Z,7.40
2018-05-18T13:12:51.079Z,7.73
2018-05-18T13:15:18.597Z,8.10
2018-05-18T13:17:46.228Z,8.63
2018-05-18T13:20:13.751Z,8.40
2018-05-18T13:22:41.291Z,8.97
2018-05-18T13:25:08.840Z,8.67
2018-05-18T13:27:36.361Z,8.03
2018-05-18T13:30:03.892Z,8.03
2018-05-18T13:32:31.416Z,9.03
2018-05-18T13:34:58.953Z,9.10
2018-05-18T13:37:26.602Z,7.90
2018-05-18T13:39:54.161Z,7.60
2018-05-18T13:42:21.720Z,8.00
2018-05-18T13:44:49.264Z,8.23
2018-05-18T13:47:16.844Z,8.70
2018-05-18T13:49:44.400Z,9.13
2018-05-18T13:52:11.965Z,9.20
2018-05-18T13:54:39.495Z,9.30
2018-05-18T13:57:07.075Z,7.50
2018-05-18T13:59:34.581Z,8.87
2018-05-18T14:02:02.106Z,8.63
2018-05-18T14:04:29.648Z,8.77
2018-05-18T14:06:57.171Z,8.60
2018-05-18T14:09:24.779Z,8.23
2018-05-18T14:11:52.349Z,9.50
2018-05-18T14:14:19.876Z,9.37
2018-05-18T14:16:47.396Z,8.87
2018-05-18T14:19:14.923Z,8.93
2018-05-18T14:21:42.482Z,9.00
2018-05-18T14:24:10.018Z,8.90
2018-05-18T14:26:37.601Z,9.53
2018-05-18T14:29:05.128Z,9.60
2018-05-18T14:31:32.747Z,9.60
2018-05-18T14:34:00.490Z,9.73
2018-05-18T14:36:28.011Z,9.50
2018-05-18T14:38:55.537Z,9.27
2018-05-18T14:41:23.273Z,9.17
2018-05-18T14:43:50.939Z,8.57
2018-05-18T14:46:18.464Z,9.67
2018-05-18T14:48:46.047Z,9.90
2018-05-18T14:51:13.620Z,9.40
2018-05-18T14:53:41.132Z,9.53
2018-05-18T14:56:08.696Z,9.33
2018-05-18T14:58:36.412Z,9.27
2018-05-18T15:01:04.002Z,9.83
2018-05-18T15:03:31.542Z,9.30
2018-05-18T15:05:59.070Z,9.70
2018-05-18T15:08:26.634Z,10.17
2018-05-18T15:10:54.174Z,9.33
2018-05-18T15:13:21.722Z,9.03
2018-05-18T15:15:49.312Z,9.17
2018-05-18T15:18:16.874Z,10.13
2018-05-18T15:20:44.438Z,9.33
2018-05-18T15:23:11.987Z,9.20
2018-05-18T15:25:39.525Z,10.00
2018-05-18T15:28:07.109Z,9.17
2018-05-18T15:30:34.676Z,8.80
2018-05-18T15:33:02.199Z,9.37
2018-05-18T15:35:29.718Z,9.13
2018-05-18T15:37:57.251Z,9.20
2018-05-18T15:40:24.777Z,9.43
2018-05-18T15:42:52.304Z,9.77
2018-05-18T15:45:19.830Z,9.77
2018-05-18T15:47:47.353Z,9.77
2018-05-18T15:50:14.945Z,9.00
2018-05-18T15:52:42.513Z,9.27
2018-05-18T15:55:10.037Z,9.60
2018-05-18T15:57:37.565Z,9.80
2018-05-18T16:00:05.093Z,10.40
2018-05-18T16:02:32.653Z,10.13
2018-05-18T16:05:00.182Z,9.57
2018-05-18T16:07:27.767Z,10.70
2018-05-18T16:09:55.329Z,10.70
2018-05-18T16:12:22.858Z,10.53
2018-05-18T16:14:50.382Z,10.30
2018-05-18T16:17:17.936Z,10.53
2018-05-18T16:19:45.462Z,10.57
2018-05-18T16:22:12.994Z,10.33
2018-05-18T16:24:40.578Z,10.93
2018-05-18T16:27:08.117Z,11.83
2018-05-18T16:29:35.643Z,11.17
2018-05-18T16:32:03.193Z,12.60
2018-05-18T16:34:30.726Z,12.00
2018-05-18T16:36:58.260Z,12.53
2018-05-18T16:39:25.796Z,11.27
2018-05-18T16:41:53.368Z,12.80
2018-05-18T16:44:20.963Z,11.80
2018-05-18T16:46:48.493Z,12.23
2018-05-18T16:49:16.015Z,10.93
2018-05-18T16:51:43.547Z,11.43
2018-05-18T16:54:11.077Z,11.17
2018-05-18T16:56:38.607Z,10.77
2018-05-18T16:59:06.216Z,11.50
2018-05-18T17:01:33.781Z,10.07
2018-05-18T17:04:01.338Z,11.07
2018-05-18T17:06:28.878Z,11.10
2018-05-18T17:08:56.417Z,10.57
2018-05-18T17:11:24.020Z,10.43
2018-05-18T17:13:51.581Z,10.33
2018-05-18T17:16:19.110Z,11.00
2018-05-18T17:18:46.706Z,11.87
2018-05-18T17:21:14.228Z,10.57
2018-05-18T17:23:41.757Z,11.23
2018-05-18T17:26:09.313Z,11.07
2018-05-18T17:28:36.840Z,11.33
2018-05-18T17:31:04.365Z,11.40
2018-05-18T17:33:31.900Z,10.23
2018-05-18T17:35:59.445Z,11.20
2018-05-18T17:38:26.977Z,10.17
2018-05-18T17:40:54.545Z,11.80
2018-05-18T17:43:22.198Z,10.80
2018-05-18T17:45:49.761Z,10.27
2018-05-18T17:48:17.284Z,10.47
2018-05-18T17:50:44.808Z,10.63
2018-05-18T17:53:12.377Z,10.90
2018-05-18T17:55:39.998Z,11.10
2018-05-18T17:58:07.562Z,9.97
2018-05-18T18:00:35.126Z,10.73
2018-05-18T18:03:02.680Z,11.10
2018-05-18T18:05:30.241Z,9.93
2018-05-18T18:07:57.820Z,10.10
2018-05-18T18:10:25.387Z,9.77
2018-05-18T18:12:52.926Z,10.63
2018-05-18T18:15:21.084Z,9.67
2018-05-18T18:17:48.655Z,9.67
2018-05-18T18:20:16.216Z,9.17
2018-05-18T18:22:43.785Z,10.23
2018-05-18T18:25:11.330Z,10.17
2018-05-18T18:27:38.858Z,10.47
2018-05-18T18:30:06.380Z,10.43
2018-05-18T18:32:33.913Z,9.50
2018-05-18T18:35:01.441Z,10.50
2018-05-18T18:37:28.983Z,10.63
2018-05-18T18:39:56.533Z,9.30
2018-05-18T18:42:24.939Z,10.23
2018-05-18T18:44:52.476Z,9.23
2018-05-18T18:47:20.022Z,9.93
2018-05-18T18:49:47.576Z,9.63
2018-05-18T18:52:15.136Z,10.27
2018-05-18T18:54:42.669Z,11.03
2018-05-18T18:57:10.216Z,10.47
2018-05-18T18:59:37.749Z,11.40
2018-05-18T19:02:05.280Z,11.30
2018-05-18T19:04:32.850Z,11.23
2018-05-18T19:07:00.396Z,11.27
2018-05-18T19:09:27.912Z,12.13
2018-05-18T19:11:55.455Z,11.67
2018-05-18T19:14:23.046Z,10.83
2018-05-18T19:16:50.610Z,11.40
2018-05-18T19:19:18.162Z,12.00
2018-05-18T19:21:45.731Z,11.80
2018-05-18T19:24:13.844Z,13.53
2018-05-18T19:26:41.416Z,12.00
2018-05-18T19:29:09.140Z,12.10
2018-05-18T19:31:36.781Z,11.37
2018-05-18T19:34:04.322Z,11.57
2018-05-18T19:36:31.916Z,11.63
2018-05-18T19:38:59.435Z,12.00
2018-05-18T19:41:26.975Z,11.57
2018-05-18T19:43:54.615Z,11.57
2018-05-18T19:46:22.744Z,11.70
2018-05-18T19:48:50.260Z,12.97
2018-05-18T19:51:17.798Z,11.80
2018-05-18T19:53:45.339Z,12.23
2018-05-18T19:56:12.879Z,11.93
2018-05-18T19:58:40.424Z,11.73
2018-05-18T20:01:07.987Z,11.57
2018-05-18T20:03:36.138Z,12.43
2018-05-18T20:06:03.754Z,12.73
2018-05-18T20:08:31.297Z,11.93
2018-05-18T20:10:58.873Z,11.80
2018-05-18T20:13:26.407Z,12.13
2018-05-18T20:15:54.015Z,12.10
2018-05-18T20:18:21.539Z,12.67
2018-05-18T20:20:49.067Z,12.10
2018-05-18T20:23:16.597Z,12.07
2018-05-18T20:25:44.133Z,11.87
2018-05-18T20:28:11.659Z,12.43
2018-05-18T20:30:39.256Z,13.40
2018-05-18T20:33:06.913Z,14.07
2018-05-18T20:35:34.439Z,12.73
2018-05-18T20:38:02.491Z,14.10
2018-05-18T20:40:30.003Z,14.27
2018-05-18T20:42:57.562Z,14.17
2018-05-18T20:45:25.156Z,14.97
2018-05-18T20:47:52.786Z,13.83
2018-05-18T20:50:20.345Z,15.30
2018-05-18T20:52:47.902Z,15.83
2018-05-18T20:55:15.432Z,15.33
2018-05-18T20:57:42.947Z,15.90
2018-05-18T21:00:10.484Z,15.53
2018-05-18T21:02:38.009Z,14.83
2018-05-18T21:05:05.535Z,15.97
2018-05-18T21:07:33.532Z,15.70
2018-05-18T21:10:01.075Z,16.30
2018-05-18T21:12:28.625Z,16.40
2018-05-18T21:14:56.153Z,16.43
2018-05-18T21:17:23.699Z,16.23
2018-05-18T21:19:51.238Z,16.53
2018-05-18T21:22:18.799Z,16.60
2018-05-18T21:24:46.359Z,16.20
2018-05-18T21:27:13.885Z,15.73
2018-05-18T21:29:41.415Z,16.40
2018-05-18T21:32:08.968Z,16.67
2018-05-18T21:34:36.511Z,17.40
2018-05-18T21:37:04.057Z,16.60
2018-05-18T21:39:31.579Z,16.03
2018-05-18T22:59:31.872Z,18.87
2018-05-18T23:01:59.565Z,18.03
2018-05-18T23:04:27.096Z,19.90
2018-05-18T23:06:54.621Z,19.77
2018-05-18T23:09:22.143Z,20.00
2018-05-18T23:11:49.672Z,19.03
2018-05-18T23:14:17.204Z,19.77
2018-05-18T23:16:44.745Z,19.80
2018-05-18T23:19:12.281Z,20.13
2018-05-18T23:21:39.818Z,19.80
2018-05-18T23:24:07.348Z,19.00
2018-05-18T23:26:34.877Z,19.70
2018-05-18T23:29:02.410Z,18.63
2018-05-18T23:31:29.952Z,17.40
2018-05-18T23:33:57.991Z,18.20
2018-05-18T23:36:25.617Z,19.60
2018-05-18T23:38:53.156Z,19.43
2018-05-18T23:41:20.697Z,18.77
2018-05-18T23:43:48.277Z,20.63
2018-05-18T23:46:15.809Z,20.90
2018-05-18T23:48:43.340Z,20.13
2018-05-18T23:51:10.889Z,20.60
2018-05-18T23:53:38.417Z,20.97
2018-05-18T23:56:05.992Z,20.73
2018-05-18T23:58:33.553Z,23.37
